createdAt,value
2023-10-13T00:01:08.273Z,4.63
2023-10-13T00:03:38.300Z,4.87
2023-10-13T00:06:09.465Z,5.80
2023-10-13T00:08:39.477Z,4.90
2023-10-13T00:11:11.023Z,4.17
2023-10-13T00:13:44.347Z,5.17
2023-10-13T00:16:18.575Z,4.67
2023-10-13T00:18:47.029Z,4.60
2023-10-13T00:21:25.418Z,5.00
2023-10-13T00:23:56.449Z,4.40
2023-10-13T00:26:28.857Z,4.87
2023-10-13T00:29:10.897Z,4.63
2023-10-13T00:31:44.202Z,5.40
2023-10-13T00:34:20.024Z,4.87
2023-10-13T00:37:11.036Z,4.70
2023-10-13T00:39:45.261Z,4.23
2023-10-13T00:42:20.850Z,4.33
2023-10-13T00:44:50.148Z,4.30
2023-10-13T00:47:34.238Z,4.50
2023-10-13T00:50:02.695Z,4.63
2023-10-13T00:52:31.828Z,4.57
2023-10-13T00:55:01.125Z,4.40
2023-10-13T00:57:29.739Z,4.10
2023-10-13T00:59:59.183Z,4.70
2023-10-13T01:02:39.289Z,4.60
2023-10-13T01:05:11.255Z,4.30
2023-10-13T01:07:41.373Z,4.87
2023-10-13T01:10:15.943Z,4.63
2023-10-13T01:12:43.753Z,4.43
2023-10-13T01:15:12.801Z,4.13
2023-10-13T01:17:40.012Z,4.40
2023-10-13T01:20:12.231Z,5.00
2023-10-13T01:22:44.127Z,4.40
2023-10-13T01:25:20.378Z,4.10
2023-10-13T01:27:50.088Z,4.63
2023-10-13T01:30:23.532Z,4.57
2023-10-13T01:32:52.081Z,4.30
2023-10-13T01:35:26.264Z,4.13
2023-10-13T01:37:54.735Z,3.80
2023-10-13T01:40:30.201Z,4.00
2023-10-13T01:42:58.467Z,4.20
2023-10-13T01:45:30.314Z,3.83
2023-10-13T01:47:59.100Z,5.10
2023-10-13T01:50:30.606Z,4.27
2023-10-13T01:53:11.814Z,4.73
2023-10-13T01:55:44.537Z,4.43
2023-10-13T01:58:16.731Z,3.90
2023-10-13T02:00:45.402Z,4.10
2023-10-13T02:03:17.072Z,4.17
2023-10-13T02:05:48.310Z,4.00
2023-10-13T02:08:23.987Z,4.27
2023-10-13T02:10:52.805Z,3.70
2023-10-13T02:13:23.455Z,4.17
2023-10-13T02:15:54.754Z,3.70
2023-10-13T02:18:27.406Z,3.97
2023-10-13T02:20:56.202Z,3.73
2023-10-13T02:23:26.135Z,3.40
2023-10-13T02:26:01.701Z,3.93
2023-10-13T02:28:34.597Z,4.17
2023-10-13T02:31:04.565Z,4.40
2023-10-13T02:33:34.060Z,4.17
2023-10-13T02:36:06.355Z,4.60
2023-10-13T02:38:43.430Z,4.30
2023-10-13T02:41:20.037Z,4.00
2023-10-13T02:43:48.339Z,4.63
2023-10-13T02:46:17.368Z,4.63
2023-10-13T02:48:54.021Z,4.00
2023-10-13T02:51:26.761Z,4.03
2023-10-13T02:53:55.100Z,3.97
2023-10-13T02:56:23.848Z,4.60
2023-10-13T02:58:57.820Z,4.00
2023-10-13T03:01:29.597Z,4.20
2023-10-13T03:03:59.883Z,4.23
2023-10-13T03:06:33.627Z,4.47
2023-10-13T03:09:15.189Z,4.30
2023-10-13T03:11:49.300Z,4.07
2023-10-13T03:14:27.157Z,3.70
2023-10-13T03:16:55.413Z,4.37
2023-10-13T03:19:24.126Z,4.43
2023-10-13T03:21:56.309Z,4.30
2023-10-13T03:24:34.386Z,4.30
2023-10-13T03:27:10.653Z,4.20
2023-10-13T03:29:43.888Z,4.27
2023-10-13T03:32:14.235Z,4.47
2023-10-13T03:34:54.400Z,4.00
2023-10-13T03:37:38.724Z,4.17
2023-10-13T03:40:17.249Z,4.00
2023-10-13T03:42:59.023Z,4.37
2023-10-13T03:45:27.345Z,3.70
2023-10-13T03:47:55.928Z,3.90
2023-10-13T03:50:30.771Z,4.57
2023-10-13T03:53:00.466Z,3.60
2023-10-13T03:55:29.847Z,3.80
2023-10-13T03:58:00.823Z,4.20
2023-10-13T04:00:29.278Z,3.70
2023-10-13T04:03:09.333Z,4.43
2023-10-13T04:05:44.704Z,3.40
2023-10-13T04:08:31.094Z,3.97
2023-10-13T04:11:28.582Z,4.67
2023-10-13T04:14:15.662Z,4.20
2023-10-13T04:16:53.586Z,3.90
2023-10-13T04:19:24.188Z,3.93
2023-10-13T04:22:15.406Z,4.10
2023-10-13T04:25:03.504Z,4.43
2023-10-13T04:27:40.840Z,3.80
2023-10-13T04:30:12.185Z,4.20
2023-10-13T04:32:47.271Z,4.43
2023-10-13T04:35:19.573Z,3.70
2023-10-13T04:37:51.799Z,3.93
2023-10-13T04:40:25.890Z,3.83
2023-10-13T04:42:58.363Z,4.03
2023-10-13T04:45:55.091Z,4.07
2023-10-13T04:48:42.430Z,3.93
2023-10-13T04:51:44.998Z,3.40
2023-10-13T04:54:26.632Z,3.97
2023-10-13T04:57:18.053Z,3.77
2023-10-13T05:00:00.215Z,3.90
2023-10-13T05:02:58.851Z,3.90
2023-10-13T05:05:47.044Z,4.63
2023-10-13T05:08:32.776Z,4.53
2023-10-13T05:11:31.610Z,4.50
2023-10-13T05:14:17.128Z,3.73
2023-10-13T05:17:03.155Z,4.27
2023-10-13T05:19:50.357Z,4.00
2023-10-13T05:22:35.889Z,3.80
2023-10-13T05:25:21.725Z,4.13
2023-10-13T05:28:07.576Z,4.83
2023-10-13T05:30:55.154Z,4.17
2023-10-13T05:33:40.777Z,4.40
2023-10-13T05:36:30.954Z,3.90
2023-10-13T05:39:16.588Z,5.07
2023-10-13T05:42:02.344Z,4.70
2023-10-13T05:44:38.863Z,4.73
2023-10-13T05:47:46.421Z,3.93
2023-10-13T05:50:30.207Z,4.10
2023-10-13T05:53:17.293Z,3.40
2023-10-13T05:56:03.261Z,3.80
2023-10-13T05:58:48.715Z,4.33
2023-10-13T06:01:42.553Z,4.83
2023-10-13T06:04:28.459Z,4.93
2023-10-13T06:07:14.587Z,3.77
2023-10-13T06:10:01.670Z,3.87
2023-10-13T06:12:52.744Z,3.93
2023-10-13T06:15:43.781Z,3.60
2023-10-13T06:18:29.576Z,3.93
2023-10-13T06:21:15.308Z,3.90
2023-10-13T06:24:01.051Z,4.50
2023-10-13T06:26:48.232Z,4.47
2023-10-13T06:29:21.675Z,3.73
2023-10-13T06:31:50.351Z,4.00
2023-10-13T06:34:22.583Z,3.67
2023-10-13T06:36:55.518Z,3.93
2023-10-13T06:39:36.170Z,3.30
2023-10-13T06:42:05.837Z,4.03
2023-10-13T06:44:33.976Z,3.90
2023-10-13T06:47:05.323Z,3.90
2023-10-13T06:49:40.073Z,3.90
2023-10-13T06:52:08.793Z,3.60
2023-10-13T06:54:38.182Z,4.47
2023-10-13T06:57:15.235Z,4.20
2023-10-13T06:59:43.443Z,3.87
2023-10-13T07:04:58.270Z,3.40
2023-10-13T07:07:27.682Z,4.57
2023-10-13T07:09:59.474Z,4.23
2023-10-13T07:12:29.085Z,3.70
2023-10-13T07:15:12.238Z,3.90
2023-10-13T07:17:41.970Z,3.87
2023-10-13T07:20:17.941Z,4.70
2023-10-13T07:22:56.580Z,4.50
2023-10-13T07:25:27.445Z,3.90
2023-10-13T07:27:58.329Z,3.80
2023-10-13T07:30:29.073Z,3.80
2023-10-13T07:33:01.223Z,3.70
2023-10-13T07:35:32.636Z,4.43
2023-10-13T07:38:02.038Z,3.90
2023-10-13T07:40:42.560Z,3.30
2023-10-13T07:43:12.884Z,4.00
2023-10-13T07:45:42.896Z,3.70
2023-10-13T07:48:20.366Z,4.50
2023-10-13T07:50:49.977Z,3.57
2023-10-13T07:53:23.815Z,3.70
2023-10-13T07:55:56.652Z,4.17
2023-10-13T07:58:27.326Z,3.70
2023-10-13T08:01:08.797Z,4.20
2023-10-13T08:03:44.894Z,3.83
2023-10-13T08:06:27.329Z,3.30
2023-10-13T08:08:57.200Z,3.90
2023-10-13T08:11:33.420Z,4.10
2023-10-13T08:14:22.241Z,3.20
2023-10-13T08:17:01.020Z,3.80
2023-10-13T08:19:41.453Z,3.57
2023-10-13T08:22:25.902Z,3.60
2023-10-13T08:25:12.355Z,3.97
2023-10-13T08:27:50.605Z,3.77
2023-10-13T08:30:30.076Z,4.10
2023-10-13T08:33:00.207Z,3.37
2023-10-13T08:35:36.241Z,3.17
2023-10-13T08:38:27.332Z,3.20
2023-10-13T08:41:18.762Z,3.30
2023-10-13T08:43:52.213Z,3.43
2023-10-13T08:46:30.173Z,3.67
2023-10-13T08:49:15.066Z,3.50
2023-10-13T08:51:50.066Z,3.20
2023-10-13T08:54:35.102Z,3.10
2023-10-13T09:00:29.969Z,3.00
2023-10-13T09:03:17.913Z,3.07
2023-10-13T09:06:02.346Z,3.17
2023-10-13T09:08:37.213Z,3.10
2023-10-13T09:11:13.724Z,2.80
2023-10-13T09:13:48.359Z,2.87
2023-10-13T09:16:18.768Z,2.60
2023-10-13T09:18:51.146Z,3.67
2023-10-13T09:21:55.818Z,3.50
2023-10-13T09:24:28.762Z,3.17
2023-10-13T09:26:57.916Z,3.40
2023-10-13T09:29:26.129Z,2.67
2023-10-13T09:32:12.951Z,2.70
2023-10-13T09:34:45.577Z,3.10
2023-10-13T09:37:22.008Z,3.30
2023-10-13T09:39:54.287Z,2.97
2023-10-13T09:42:24.943Z,3.13
2023-10-13T09:44:53.509Z,3.80
2023-10-13T09:47:33.585Z,2.40
2023-10-13T09:50:07.148Z,2.63
2023-10-13T09:52:38.765Z,3.20
2023-10-13T09:55:24.258Z,2.93
2023-10-13T09:58:00.807Z,3.00
2023-10-13T10:00:57.485Z,3.27
2023-10-13T10:03:41.930Z,2.70
2023-10-13T10:06:17.436Z,3.00
2023-10-13T10:08:49.718Z,2.83
2023-10-13T10:11:46.543Z,3.53
2023-10-13T10:14:21.247Z,2.90
2023-10-13T10:17:05.630Z,2.33
2023-10-13T10:19:37.290Z,3.40
2023-10-13T10:22:17.685Z,3.37
2023-10-13T10:24:48.037Z,2.43
2023-10-13T10:27:26.560Z,2.87
2023-10-13T10:29:59.352Z,2.90
2023-10-13T10:32:37.913Z,2.63
2023-10-13T10:35:17.421Z,2.23
2023-10-13T10:37:49.937Z,3.07
2023-10-13T10:40:42.263Z,2.50
2023-10-13T10:43:29.675Z,2.60
2023-10-13T10:46:01.806Z,3.00
2023-10-13T10:48:39.464Z,3.10
2023-10-13T10:51:15.422Z,2.73
2023-10-13T10:53:47.457Z,2.90
2023-10-13T10:56:25.575Z,2.80
2023-10-13T10:58:57.253Z,3.30
2023-10-13T11:01:33.778Z,2.50
2023-10-13T11:04:09.503Z,2.53
2023-10-13T11:06:43.777Z,2.80
2023-10-13T11:09:22.354Z,2.70
2023-10-13T11:11:53.738Z,2.50
2023-10-13T11:14:25.236Z,2.50
2023-10-13T11:16:55.635Z,2.57
2023-10-13T11:19:36.230Z,3.13
2023-10-13T11:22:30.472Z,2.20
2023-10-13T11:25:00.975Z,2.53
2023-10-13T11:27:57.752Z,2.77
2023-10-13T11:30:42.035Z,2.47
2023-10-13T11:33:12.486Z,3.30
2023-10-13T11:35:56.730Z,2.63
2023-10-13T11:38:28.913Z,2.83
2023-10-13T11:41:13.306Z,2.80
2023-10-13T11:43:56.889Z,3.20
2023-10-13T11:46:44.730Z,2.40
2023-10-13T11:49:19.532Z,2.67
2023-10-13T11:51:49.600Z,3.20
2023-10-13T11:54:20.212Z,3.00
2023-10-13T11:56:49.595Z,2.37
2023-10-13T11:59:19.219Z,2.57
2023-10-13T12:02:05.702Z,2.70
2023-10-13T12:04:36.263Z,2.60
2023-10-13T12:07:18.549Z,3.00
2023-10-13T12:10:07.648Z,2.37
2023-10-13T12:12:41.789Z,2.03
2023-10-13T12:15:27.316Z,2.93
2023-10-13T12:17:59.376Z,2.07
2023-10-13T12:20:34.931Z,3.13
2023-10-13T12:23:16.611Z,2.43
2023-10-13T12:25:56.208Z,2.73
2023-10-13T12:28:24.815Z,2.70
2023-10-13T12:30:54.071Z,2.60
2023-10-13T12:33:38.182Z,2.23
2023-10-13T12:36:16.384Z,2.60
2023-10-13T12:39:03.431Z,2.33
2023-10-13T12:41:50.251Z,2.20
2023-10-13T12:44:35.990Z,2.47
2023-10-13T12:47:21.649Z,2.30
2023-10-13T12:50:08.931Z,2.70
2023-10-13T12:52:37.441Z,3.70
2023-10-13T12:55:11.240Z,2.40
2023-10-13T12:57:45.657Z,3.00
2023-10-13T13:00:27.379Z,2.33
2023-10-13T13:02:57.587Z,2.20
2023-10-13T13:05:32.988Z,2.50
2023-10-13T13:08:02.020Z,2.10
2023-10-13T13:10:40.579Z,2.80
2023-10-13T13:13:11.007Z,1.80
2023-10-13T13:15:40.703Z,2.33
2023-10-13T13:18:13.021Z,2.57
2023-10-13T13:20:55.102Z,2.50
2023-10-13T13:23:27.697Z,2.20
2023-10-13T13:25:59.299Z,2.53
2023-10-13T13:28:37.403Z,2.70
2023-10-13T13:31:09.458Z,2.30
2023-10-13T13:33:40.207Z,2.17
2023-10-13T13:36:16.879Z,2.93
2023-10-13T13:38:50.101Z,2.37
2023-10-13T13:41:19.846Z,2.40
2023-10-13T13:43:57.923Z,2.40
2023-10-13T13:46:28.810Z,2.47
2023-10-13T13:49:00.639Z,2.13
2023-10-13T13:51:29.827Z,2.60
2023-10-13T13:53:58.527Z,2.40
2023-10-13T13:56:29.527Z,2.60
2023-10-13T13:59:07.880Z,2.23
2023-10-13T14:01:38.717Z,2.47
2023-10-13T14:04:08.904Z,3.13
2023-10-13T14:06:39.041Z,2.57
2023-10-13T14:09:15.747Z,2.10
2023-10-13T14:12:02.178Z,2.30
2023-10-13T14:14:34.715Z,2.17
2023-10-13T14:17:09.161Z,2.57
2023-10-13T14:19:41.924Z,2.17
2023-10-13T14:22:14.033Z,1.57
2023-10-13T14:24:52.883Z,2.30
2023-10-13T14:27:24.055Z,1.83
2023-10-13T14:29:55.306Z,1.83
2023-10-13T14:32:28.640Z,2.10
2023-10-13T14:34:57.715Z,2.30
2023-10-13T14:37:30.937Z,2.00
2023-10-13T14:40:00.696Z,2.40
2023-10-13T14:42:30.357Z,1.90
2023-10-13T14:45:01.451Z,2.33
2023-10-13T14:47:29.807Z,2.03
2023-10-13T14:50:01.164Z,1.83
2023-10-13T14:52:33.356Z,1.80
2023-10-13T14:55:02.059Z,1.90
2023-10-13T14:57:30.323Z,2.03
2023-10-13T15:00:00.087Z,2.20
2023-10-13T15:02:28.547Z,1.90
2023-10-13T15:04:58.902Z,1.77
2023-10-13T15:07:29.140Z,2.10
2023-10-13T15:09:58.391Z,2.00
2023-10-13T15:12:29.594Z,2.17
2023-10-13T15:15:00.298Z,2.00
2023-10-13T15:17:30.548Z,1.63
2023-10-13T15:20:00.905Z,2.17
2023-10-13T15:22:29.408Z,1.80
2023-10-13T15:25:10.533Z,2.00
2023-10-13T15:27:42.761Z,1.50
2023-10-13T15:30:24.020Z,1.80
2023-10-13T15:32:53.068Z,2.10
2023-10-13T15:35:23.822Z,2.03
2023-10-13T15:37:53.016Z,2.17
2023-10-13T15:40:22.538Z,2.40
2023-10-13T15:42:50.731Z,1.80
2023-10-13T15:45:20.438Z,2.40
2023-10-13T15:50:22.392Z,2.47
2023-10-13T15:52:51.476Z,2.50
2023-10-13T15:55:19.778Z,2.50
2023-10-13T15:57:54.131Z,2.80
2023-10-13T16:00:27.633Z,2.30
2023-10-13T16:02:58.156Z,2.07
2023-10-13T16:05:35.667Z,2.47
2023-10-13T16:08:07.628Z,2.13
2023-10-13T16:10:35.863Z,2.00
2023-10-13T16:13:06.548Z,2.50
2023-10-13T16:15:44.005Z,1.93
2023-10-13T16:18:12.584Z,2.67
2023-10-13T16:20:42.053Z,2.57
2023-10-13T16:23:10.659Z,2.43
2023-10-13T16:25:39.023Z,2.87
2023-10-13T16:28:08.946Z,2.30
2023-10-13T16:30:38.603Z,3.13
2023-10-13T16:33:07.438Z,3.07
2023-10-13T16:35:35.946Z,2.47
2023-10-13T16:38:07.792Z,2.57
2023-10-13T16:40:36.652Z,2.47
2023-10-13T16:43:05.247Z,3.43
2023-10-13T16:45:45.166Z,2.50
2023-10-13T16:48:15.332Z,3.40
2023-10-13T16:50:45.045Z,2.80
2023-10-13T16:53:13.767Z,2.50
2023-10-13T16:55:43.904Z,2.50
2023-10-13T16:58:15.348Z,2.60
2023-10-13T17:00:46.486Z,2.60
2023-10-13T17:03:15.305Z,3.40
2023-10-13T17:05:43.914Z,3.67
2023-10-13T17:08:12.245Z,3.33
2023-10-13T17:10:40.618Z,3.20
2023-10-13T17:13:09.652Z,2.63
2023-10-13T17:15:39.210Z,3.07
2023-10-13T17:18:09.016Z,2.50
2023-10-13T17:20:38.335Z,3.47
2023-10-13T17:23:07.884Z,2.70
2023-10-13T17:25:36.426Z,3.37
2023-10-13T17:28:11.746Z,3.23
2023-10-13T17:30:40.634Z,2.90
2023-10-13T17:33:12.612Z,3.30
2023-10-13T17:35:41.780Z,3.40
2023-10-13T17:38:11.486Z,3.67
2023-10-13T17:40:40.018Z,3.20
2023-10-13T17:43:09.123Z,3.83
2023-10-13T17:45:37.383Z,4.17
2023-10-13T17:48:07.692Z,3.50
2023-10-13T17:50:38.237Z,3.07
2023-10-13T17:53:06.532Z,3.20
2023-10-13T17:55:35.017Z,3.70
2023-10-13T17:58:03.369Z,3.57
2023-10-13T18:00:31.936Z,3.50
2023-10-13T18:03:04.977Z,3.50
2023-10-13T18:05:36.506Z,3.83
2023-10-13T18:08:07.258Z,3.80
2023-10-13T18:10:35.782Z,3.30
2023-10-13T18:13:04.318Z,3.23
2023-10-13T18:15:32.946Z,4.10
2023-10-13T18:18:03.054Z,3.17
2023-10-13T18:20:31.372Z,3.80
2023-10-13T18:23:00.806Z,3.47
2023-10-13T18:25:32.629Z,3.50
2023-10-13T18:28:04.667Z,3.70
2023-10-13T18:30:34.996Z,3.80
2023-10-13T18:33:08.659Z,4.67
2023-10-13T18:35:39.203Z,3.50
2023-10-13T18:38:09.227Z,3.83
2023-10-13T18:40:40.017Z,3.50
2023-10-13T18:43:10.182Z,3.93
2023-10-13T18:45:38.404Z,4.00
2023-10-13T18:48:07.418Z,3.53
2023-10-13T18:50:35.589Z,4.17
2023-10-13T18:53:04.417Z,3.80
2023-10-13T18:55:32.540Z,4.10
2023-10-13T18:58:02.146Z,3.87
2023-10-13T19:00:34.510Z,4.23
2023-10-13T19:03:06.662Z,5.00
2023-10-13T19:05:35.917Z,3.40
2023-10-13T19:08:09.304Z,4.57
2023-10-13T19:10:38.094Z,3.63
2023-10-13T19:13:07.727Z,4.17
2023-10-13T19:15:39.458Z,4.00
2023-10-13T19:18:09.986Z,4.50
2023-10-13T19:20:42.146Z,3.90
2023-10-13T19:23:10.600Z,5.23
2023-10-13T19:25:38.978Z,4.50
2023-10-13T19:28:12.020Z,4.50
2023-10-13T19:30:43.362Z,5.07
2023-10-13T19:33:12.410Z,4.80
2023-10-13T19:35:42.591Z,5.40
2023-10-13T19:38:11.110Z,4.57
2023-10-13T19:40:39.437Z,4.50
2023-10-13T19:43:13.602Z,4.70
2023-10-13T19:45:42.501Z,4.80
2023-10-13T19:48:11.540Z,4.67
2023-10-13T19:50:41.881Z,4.90
2023-10-13T19:53:12.981Z,4.30
2023-10-13T19:55:42.313Z,4.83
2023-10-13T19:58:15.670Z,4.70
2023-10-13T20:00:44.197Z,4.20
2023-10-13T20:03:14.260Z,4.70
2023-10-13T20:05:44.253Z,4.90
2023-10-13T20:08:12.554Z,5.10
2023-10-13T20:10:40.886Z,4.50
2023-10-13T20:13:12.011Z,5.40
2023-10-13T20:15:43.013Z,5.03
2023-10-13T20:18:11.655Z,5.00
2023-10-13T20:20:45.282Z,4.20
2023-10-13T20:23:17.785Z,4.40
2023-10-13T20:25:53.744Z,4.60
2023-10-13T20:28:23.817Z,4.70
2023-10-13T20:30:53.705Z,4.67
2023-10-13T20:33:23.599Z,3.93
2023-10-13T20:35:54.588Z,5.10
2023-10-13T20:38:23.941Z,4.53
2023-10-13T20:40:59.068Z,4.33
2023-10-13T20:43:27.281Z,3.90
2023-10-13T20:45:59.372Z,4.20
2023-10-13T20:48:31.996Z,4.37
2023-10-13T20:51:01.233Z,4.70
2023-10-13T20:53:29.469Z,4.13
2023-10-13T20:56:02.340Z,4.10
2023-10-13T20:58:30.639Z,4.20
2023-10-13T21:01:00.401Z,4.07
2023-10-13T21:03:28.788Z,4.07
2023-10-13T21:05:58.660Z,5.13
2023-10-13T21:08:27.126Z,3.90
2023-10-13T21:10:56.135Z,4.40
2023-10-13T21:13:24.342Z,3.53
2023-10-13T21:15:52.572Z,3.60
2023-10-13T21:18:22.264Z,4.23
2023-10-13T21:20:51.798Z,3.90
2023-10-13T21:23:22.225Z,4.00
2023-10-13T21:25:50.414Z,3.77
2023-10-13T21:28:20.814Z,3.80
2023-10-13T21:30:49.038Z,4.33
2023-10-13T21:33:18.226Z,3.80
2023-10-13T21:35:50.785Z,3.67
2023-10-13T21:38:19.143Z,3.60
2023-10-13T21:40:47.289Z,3.60
2023-10-13T21:43:16.638Z,3.83
2023-10-13T21:45:47.073Z,4.00
2023-10-13T21:48:15.461Z,4.20
2023-10-13T21:50:44.006Z,3.73
2023-10-13T21:53:14.444Z,3.67
2023-10-13T21:55:42.774Z,4.40
2023-10-13T21:58:11.149Z,4.00
2023-10-13T22:00:57.212Z,3.50
2023-10-13T22:03:26.990Z,3.60
2023-10-13T22:05:55.291Z,3.33
2023-10-13T22:08:25.481Z,3.90
2023-10-13T22:10:53.957Z,3.23
2023-10-13T22:13:22.174Z,4.40
2023-10-13T22:15:52.271Z,2.97
2023-10-13T22:18:20.545Z,3.53
2023-10-13T22:20:48.948Z,3.60
2023-10-13T22:23:17.110Z,4.43
2023-10-13T22:25:46.735Z,3.47
2023-10-13T22:28:16.417Z,3.00
2023-10-13T22:30:45.067Z,3.40
2023-10-13T22:33:16.733Z,3.23
2023-10-13T22:35:45.048Z,3.60
2023-10-13T22:38:13.229Z,3.53
2023-10-13T22:40:42.123Z,4.33
2023-10-13T22:43:11.835Z,3.73
2023-10-13T22:45:40.102Z,3.63
2023-10-13T22:48:11.095Z,3.73
2023-10-13T22:50:39.421Z,3.73
2023-10-13T22:53:07.845Z,3.33
2023-10-13T22:55:37.907Z,3.93
2023-10-13T22:58:11.061Z,4.23
2023-10-13T23:00:54.835Z,2.93
2023-10-13T23:03:24.367Z,4.00
2023-10-13T23:05:56.082Z,3.43
2023-10-13T23:08:35.762Z,3.50
2023-10-13T23:11:15.306Z,3.30
2023-10-13T23:13:45.057Z,3.63
2023-10-13T23:16:14.790Z,3.97
2023-10-13T23:18:46.670Z,3.00
2023-10-13T23:21:15.402Z,3.00
2023-10-13T23:23:45.448Z,3.37
2023-10-13T23:26:16.424Z,3.97
2023-10-13T23:28:47.412Z,3.43
2023-10-13T23:31:17.969Z,2.80
2023-10-13T23:33:46.566Z,3.23
2023-10-13T23:36:16.765Z,3.20
2023-10-13T23:38:53.207Z,4.00
2023-10-13T23:41:24.697Z,3.23
2023-10-13T23:43:57.023Z,3.20
2023-10-13T23:46:27.658Z,3.30
2023-10-13T23:48:56.175Z,3.60
2023-10-13T23:51:28.092Z,2.90
2023-10-13T23:54:01.931Z,3.30
2023-10-13T23:56:31.097Z,2.83
2023-10-13T23:59:06.437Z,3.50
